sensor_id;sensor_type;location;lat;lon;timestamp;temperature;humidity
23562;DHT22;11959;49.418;8.728;2022-12-17T00:01:32;-3.70;99.90
23562;DHT22;11959;49.418;8.728;2022-12-17T00:04:16;-3.70;99.90
23562;DHT22;11959;49.418;8.728;2022-12-17T00:07:00;-3.70;99.90
23562;DHT22;11959;49.418;8.728;2022-12-17T00:09:44;-3.70;99.90
23562;DHT22;11959;49.418;8.728;2022-12-17T00:12:28;-3.70;99.90
23562;DHT22;11959;49.418;8.728;2022-12-17T00:15:12;-3.70;99.90
23562;DHT22;11959;49.418;8.728;2022-12-17T00:18:04;-3.80;99.90
23562;DHT22;11959;49.418;8.728;2022-12-17T00:20:56;-3.80;99.90
23562;DHT22;11959;49.418;8.728;2022-12-17T00:23:41;-3.80;99.90
23562;DHT22;11959;49.418;8.728;2022-12-17T00:26:26;-3.70;99.90
23562;DHT22;11959;49.418;8.728;2022-12-17T00:29:10;-3.70;99.90
23562;DHT22;11959;49.418;8.728;2022-12-17T00:31:54;-3.80;99.90
23562;DHT22;11959;49.418;8.728;2022-12-17T00:34:38;-3.80;99.90
23562;DHT22;11959;49.418;8.728;2022-12-17T00:37:22;-3.80;99.90
23562;DHT22;11959;49.418;8.728;2022-12-17T00:40:07;-3.80;99.90
23562;DHT22;11959;49.418;8.728;2022-12-17T00:43:05;-3.80;99.90
23562;DHT22;11959;49.418;8.728;2022-12-17T00:45:50;-3.80;99.90
23562;DHT22;11959;49.418;8.728;2022-12-17T00:48:34;-3.80;99.90
23562;DHT22;11959;49.418;8.728;2022-12-17T00:51:20;-3.80;99.90
23562;DHT22;11959;49.418;8.728;2022-12-17T00:54:04;-3.80;99.90
23562;DHT22;11959;49.418;8.728;2022-12-17T00:56:49;-3.90;99.90
23562;DHT22;11959;49.418;8.728;2022-12-17T00:59:34;-3.90;99.90
23562;DHT22;11959;49.418;8.728;2022-12-17T01:02:18;-3.90;99.90
23562;DHT22;11959;49.418;8.728;2022-12-17T01:05:02;-4.00;99.90
23562;DHT22;11959;49.418;8.728;2022-12-17T01:07:46;-4.00;99.90
23562;DHT22;11959;49.418;8.728;2022-12-17T01:10:30;-4.00;99.90
23562;DHT22;11959;49.418;8.728;2022-12-17T01:13:15;-4.00;99.90
23562;DHT22;11959;49.418;8.728;2022-12-17T01:16:07;-4.00;99.90
23562;DHT22;11959;49.418;8.728;2022-12-17T01:18:52;-4.00;99.90
23562;DHT22;11959;49.418;8.728;2022-12-17T01:21:37;-4.00;99.90
23562;DHT22;11959;49.418;8.728;2022-12-17T01:24:21;-4.10;99.90
23562;DHT22;11959;49.418;8.728;2022-12-17T01:27:06;-4.10;99.90
23562;DHT22;11959;49.418;8.728;2022-12-17T01:29:50;-4.00;99.90
23562;DHT22;11959;49.418;8.728;2022-12-17T01:32:34;-4.10;99.90
23562;DHT22;11959;49.418;8.728;2022-12-17T01:35:19;-4.00;99.90
23562;DHT22;11959;49.418;8.728;2022-12-17T01:38:08;-4.10;99.90
23562;DHT22;11959;49.418;8.728;2022-12-17T01:40:53;-4.10;99.90
23562;DHT22;11959;49.418;8.728;2022-12-17T01:43:37;-4.10;99.90
23562;DHT22;11959;49.418;8.728;2022-12-17T01:46:23;-4.20;99.90
23562;DHT22;11959;49.418;8.728;2022-12-17T01:49:09;-4.10;99.90
23562;DHT22;11959;49.418;8.728;2022-12-17T01:51:54;-4.20;99.90
23562;DHT22;11959;49.418;8.728;2022-12-17T01:54:40;-4.20;99.90
23562;DHT22;11959;49.418;8.728;2022-12-17T01:57:25;-4.20;99.90
23562;DHT22;11959;49.418;8.728;2022-12-17T02:00:12;-4.20;99.90
23562;DHT22;11959;49.418;8.728;2022-12-17T02:02:58;-4.20;99.90
23562;DHT22;11959;49.418;8.728;2022-12-17T02:12:08;-4.30;99.90
23562;DHT22;11959;49.418;8.728;2022-12-17T02:17:48;-4.30;99.90
23562;DHT22;11959;49.418;8.728;2022-12-17T02:20:50;-4.40;99.90
23562;DHT22;11959;49.418;8.728;2022-12-17T02:29:22;-4.40;99.90
23562;DHT22;11959;49.418;8.728;2022-12-17T02:32:08;-4.40;99.90
23562;DHT22;11959;49.418;8.728;2022-12-17T02:34:53;-4.40;99.90
23562;DHT22;11959;49.418;8.728;2022-12-17T02:37:51;-4.50;99.90
23562;DHT22;11959;49.418;8.728;2022-12-17T02:40:36;-4.50;99.90
23562;DHT22;11959;49.418;8.728;2022-12-17T02:43:22;-4.50;99.90
23562;DHT22;11959;49.418;8.728;2022-12-17T02:46:08;-4.60;99.90
23562;DHT22;11959;49.418;8.728;2022-12-17T02:48:52;-4.60;99.90
23562;DHT22;11959;49.418;8.728;2022-12-17T02:51:36;-4.60;99.90
23562;DHT22;11959;49.418;8.728;2022-12-17T02:54:21;-4.60;99.90
23562;DHT22;11959;49.418;8.728;2022-12-17T02:57:05;-4.70;99.90
23562;DHT22;11959;49.418;8.728;2022-12-17T02:59:49;-4.60;99.90
23562;DHT22;11959;49.418;8.728;2022-12-17T03:02:33;-4.60;99.90
23562;DHT22;11959;49.418;8.728;2022-12-17T03:05:22;-4.60;99.90
23562;DHT22;11959;49.418;8.728;2022-12-17T03:08:06;-4.70;99.90
23562;DHT22;11959;49.418;8.728;2022-12-17T03:10:50;-4.70;99.90
23562;DHT22;11959;49.418;8.728;2022-12-17T03:13:34;-4.70;99.90
23562;DHT22;11959;49.418;8.728;2022-12-17T03:16:18;-4.80;99.90
23562;DHT22;11959;49.418;8.728;2022-12-17T03:19:03;-4.80;99.90
23562;DHT22;11959;49.418;8.728;2022-12-17T03:21:47;-4.80;99.90
23562;DHT22;11959;49.418;8.728;2022-12-17T03:24:31;-4.80;99.90
23562;DHT22;11959;49.418;8.728;2022-12-17T03:27:15;-4.90;99.90
23562;DHT22;11959;49.418;8.728;2022-12-17T03:29:59;-4.90;99.90
23562;DHT22;11959;49.418;8.728;2022-12-17T03:32:43;-4.90;99.90
23562;DHT22;11959;49.418;8.728;2022-12-17T03:35:28;-4.80;99.90
23562;DHT22;11959;49.418;8.728;2022-12-17T03:38:12;-4.80;99.90
23562;DHT22;11959;49.418;8.728;2022-12-17T03:40:56;-4.90;99.90
23562;DHT22;11959;49.418;8.728;2022-12-17T03:43:42;-4.80;99.90
23562;DHT22;11959;49.418;8.728;2022-12-17T03:46:26;-4.80;99.90
23562;DHT22;11959;49.418;8.728;2022-12-17T03:49:10;-4.80;99.90
23562;DHT22;11959;49.418;8.728;2022-12-17T03:51:54;-4.90;99.90
23562;DHT22;11959;49.418;8.728;2022-12-17T03:54:38;-4.90;99.90
23562;DHT22;11959;49.418;8.728;2022-12-17T03:57:22;-4.90;99.90
23562;DHT22;11959;49.418;8.728;2022-12-17T04:00:08;-5.00;99.90
23562;DHT22;11959;49.418;8.728;2022-12-17T04:02:52;-5.00;99.90
23562;DHT22;11959;49.418;8.728;2022-12-17T04:05:37;-5.00;99.90
23562;DHT22;11959;49.418;8.728;2022-12-17T04:08:21;-5.00;99.90
23562;DHT22;11959;49.418;8.728;2022-12-17T04:11:05;-5.10;99.90
23562;DHT22;11959;49.418;8.728;2022-12-17T04:13:49;-5.10;99.90
23562;DHT22;11959;49.418;8.728;2022-12-17T04:16:33;-5.10;99.90
23562;DHT22;11959;49.418;8.728;2022-12-17T04:19:17;-5.10;99.90
23562;DHT22;11959;49.418;8.728;2022-12-17T04:22:01;-5.10;99.90
23562;DHT22;11959;49.418;8.728;2022-12-17T04:24:45;-5.10;99.90
23562;DHT22;11959;49.418;8.728;2022-12-17T04:27:29;-5.10;99.90
23562;DHT22;11959;49.418;8.728;2022-12-17T04:30:13;-5.20;99.90
23562;DHT22;11959;49.418;8.728;2022-12-17T04:32:57;-5.20;99.90
23562;DHT22;11959;49.418;8.728;2022-12-17T04:35:43;-5.20;99.90
23562;DHT22;11959;49.418;8.728;2022-12-17T04:38:27;-5.20;99.90
23562;DHT22;11959;49.418;8.728;2022-12-17T04:41:11;-5.20;99.90
23562;DHT22;11959;49.418;8.728;2022-12-17T04:43:55;-5.20;99.90
23562;DHT22;11959;49.418;8.728;2022-12-17T04:46:39;-5.20;99.90
23562;DHT22;11959;49.418;8.728;2022-12-17T04:49:23;-5.20;99.90
23562;DHT22;11959;49.418;8.728;2022-12-17T04:52:07;-5.30;99.90
23562;DHT22;11959;49.418;8.728;2022-12-17T04:54:51;-5.20;99.90
23562;DHT22;11959;49.418;8.728;2022-12-17T04:57:35;-5.30;99.90
23562;DHT22;11959;49.418;8.728;2022-12-17T05:00:19;-5.20;99.90
23562;DHT22;11959;49.418;8.728;2022-12-17T05:03:05;-5.20;99.90
23562;DHT22;11959;49.418;8.728;2022-12-17T05:05:50;-5.20;99.90
23562;DHT22;11959;49.418;8.728;2022-12-17T05:08:34;-5.20;99.90
23562;DHT22;11959;49.418;8.728;2022-12-17T05:11:18;-5.20;99.90
23562;DHT22;11959;49.418;8.728;2022-12-17T05:14:02;-5.20;99.90
23562;DHT22;11959;49.418;8.728;2022-12-17T05:16:46;-5.20;99.90
23562;DHT22;11959;49.418;8.728;2022-12-17T05:19:30;-5.30;99.90
23562;DHT22;11959;49.418;8.728;2022-12-17T05:22:14;-5.30;99.90
23562;DHT22;11959;49.418;8.728;2022-12-17T05:24:58;-5.30;99.90
23562;DHT22;11959;49.418;8.728;2022-12-17T05:27:42;-5.30;99.90
23562;DHT22;11959;49.418;8.728;2022-12-17T05:30:26;-5.30;99.90
23562;DHT22;11959;49.418;8.728;2022-12-17T05:33:10;-5.20;99.90
23562;DHT22;11959;49.418;8.728;2022-12-17T05:35:59;-5.30;99.90
23562;DHT22;11959;49.418;8.728;2022-12-17T05:38:43;-5.30;99.90
23562;DHT22;11959;49.418;8.728;2022-12-17T05:41:27;-5.40;99.90
23562;DHT22;11959;49.418;8.728;2022-12-17T05:44:11;-5.30;99.90
23562;DHT22;11959;49.418;8.728;2022-12-17T05:46:55;-5.40;99.90
23562;DHT22;11959;49.418;8.728;2022-12-17T05:49:39;-5.40;99.90
23562;DHT22;11959;49.418;8.728;2022-12-17T05:52:23;-5.40;99.90
23562;DHT22;11959;49.418;8.728;2022-12-17T05:55:07;-5.40;99.90
23562;DHT22;11959;49.418;8.728;2022-12-17T05:57:51;-5.50;99.90
23562;DHT22;11959;49.418;8.728;2022-12-17T06:00:36;-5.50;99.90
23562;DHT22;11959;49.418;8.728;2022-12-17T06:03:20;-5.50;99.90
23562;DHT22;11959;49.418;8.728;2022-12-17T06:06:04;-5.50;99.90
23562;DHT22;11959;49.418;8.728;2022-12-17T06:08:48;-5.50;99.90
23562;DHT22;11959;49.418;8.728;2022-12-17T06:11:32;-5.60;99.90
23562;DHT22;11959;49.418;8.728;2022-12-17T06:14:16;-5.60;99.90
23562;DHT22;11959;49.418;8.728;2022-12-17T06:17:00;-5.60;99.90
23562;DHT22;11959;49.418;8.728;2022-12-17T06:19:44;-5.60;99.90
23562;DHT22;11959;49.418;8.728;2022-12-17T06:22:29;-5.60;99.90
23562;DHT22;11959;49.418;8.728;2022-12-17T06:25:13;-5.60;99.90
23562;DHT22;11959;49.418;8.728;2022-12-17T06:27:59;-5.60;99.90
23562;DHT22;11959;49.418;8.728;2022-12-17T06:30:49;-5.60;99.90
23562;DHT22;11959;49.418;8.728;2022-12-17T06:33:33;-5.60;99.90
23562;DHT22;11959;49.418;8.728;2022-12-17T06:36:17;-5.60;99.90
23562;DHT22;11959;49.418;8.728;2022-12-17T06:39:01;-5.60;99.90
23562;DHT22;11959;49.418;8.728;2022-12-17T06:41:45;-5.60;99.90
23562;DHT22;11959;49.418;8.728;2022-12-17T06:44:29;-5.60;99.90
23562;DHT22;11959;49.418;8.728;2022-12-17T06:47:14;-5.60;99.90
23562;DHT22;11959;49.418;8.728;2022-12-17T06:49:58;-5.60;99.90
23562;DHT22;11959;49.418;8.728;2022-12-17T06:52:42;-5.60;99.90
23562;DHT22;11959;49.418;8.728;2022-12-17T06:55:26;-5.60;99.90
23562;DHT22;11959;49.418;8.728;2022-12-17T06:58:10;-5.60;99.90
23562;DHT22;11959;49.418;8.728;2022-12-17T07:00:54;-5.60;99.90
23562;DHT22;11959;49.418;8.728;2022-12-17T07:03:38;-5.60;99.90
23562;DHT22;11959;49.418;8.728;2022-12-17T07:06:22;-5.60;99.90
23562;DHT22;11959;49.418;8.728;2022-12-17T07:09:06;-5.60;99.90
23562;DHT22;11959;49.418;8.728;2022-12-17T07:11:50;-5.60;99.90
23562;DHT22;11959;49.418;8.728;2022-12-17T07:14:34;-5.60;99.90
23562;DHT22;11959;49.418;8.728;2022-12-17T07:17:18;-5.60;99.90
23562;DHT22;11959;49.418;8.728;2022-12-17T07:20:03;-5.60;99.90
23562;DHT22;11959;49.418;8.728;2022-12-17T07:22:47;-5.60;99.90
23562;DHT22;11959;49.418;8.728;2022-12-17T07:25:31;-5.60;99.90
23562;DHT22;11959;49.418;8.728;2022-12-17T07:28:15;-5.60;99.90
23562;DHT22;11959;49.418;8.728;2022-12-17T07:30:59;-5.60;99.90
23562;DHT22;11959;49.418;8.728;2022-12-17T07:33:43;-5.60;99.90
23562;DHT22;11959;49.418;8.728;2022-12-17T07:36:28;-5.60;99.90
23562;DHT22;11959;49.418;8.728;2022-12-17T07:39:12;-5.70;99.90
23562;DHT22;11959;49.418;8.728;2022-12-17T07:41:56;-5.60;99.90
23562;DHT22;11959;49.418;8.728;2022-12-17T07:44:40;-5.70;99.90
23562;DHT22;11959;49.418;8.728;2022-12-17T07:47:24;-5.70;99.90
23562;DHT22;11959;49.418;8.728;2022-12-17T07:50:08;-5.70;99.90
23562;DHT22;11959;49.418;8.728;2022-12-17T07:53:02;-5.70;99.90
23562;DHT22;11959;49.418;8.728;2022-12-17T07:55:47;-5.70;99.90
23562;DHT22;11959;49.418;8.728;2022-12-17T07:58:31;-5.70;99.90
23562;DHT22;11959;49.418;8.728;2022-12-17T08:01:15;-5.80;99.90
23562;DHT22;11959;49.418;8.728;2022-12-17T08:03:59;-5.80;99.90
23562;DHT22;11959;49.418;8.728;2022-12-17T08:06:44;-5.80;99.90
23562;DHT22;11959;49.418;8.728;2022-12-17T08:09:28;-5.80;99.90
23562;DHT22;11959;49.418;8.728;2022-12-17T08:12:12;-5.80;99.90
23562;DHT22;11959;49.418;8.728;2022-12-17T08:14:56;-5.80;99.90
23562;DHT22;11959;49.418;8.728;2022-12-17T08:17:40;-5.80;99.90
23562;DHT22;11959;49.418;8.728;2022-12-17T08:20:24;-5.80;99.90
23562;DHT22;11959;49.418;8.728;2022-12-17T08:23:25;-5.80;99.90
23562;DHT22;11959;49.418;8.728;2022-12-17T08:26:09;-5.70;99.90
23562;DHT22;11959;49.418;8.728;2022-12-17T08:28:53;-5.80;99.90
23562;DHT22;11959;49.418;8.728;2022-12-17T08:31:37;-5.70;99.90
23562;DHT22;11959;49.418;8.728;2022-12-17T08:34:21;-5.80;99.90
23562;DHT22;11959;49.418;8.728;2022-12-17T08:37:05;-5.70;99.90
23562;DHT22;11959;49.418;8.728;2022-12-17T08:39:49;-5.70;99.90
23562;DHT22;11959;49.418;8.728;2022-12-17T08:42:33;-5.70;99.90
23562;DHT22;11959;49.418;8.728;2022-12-17T08:45:17;-5.70;99.90
23562;DHT22;11959;49.418;8.728;2022-12-17T08:48:06;-5.60;99.90
23562;DHT22;11959;49.418;8.728;2022-12-17T08:50:50;-5.50;99.90
23562;DHT22;11959;49.418;8.728;2022-12-17T08:53:35;-5.40;99.90
23562;DHT22;11959;49.418;8.728;2022-12-17T08:56:19;-5.40;99.90
23562;DHT22;11959;49.418;8.728;2022-12-17T08:59:03;-5.40;99.90
23562;DHT22;11959;49.418;8.728;2022-12-17T09:01:46;-5.30;99.90
23562;DHT22;11959;49.418;8.728;2022-12-17T09:04:30;-5.20;99.90
23562;DHT22;11959;49.418;8.728;2022-12-17T09:07:15;-5.10;99.90
23562;DHT22;11959;49.418;8.728;2022-12-17T09:09:59;-5.10;99.90
23562;DHT22;11959;49.418;8.728;2022-12-17T09:12:43;-5.10;99.90
23562;DHT22;11959;49.418;8.728;2022-12-17T09:15:27;-5.10;99.90
23562;DHT22;11959;49.418;8.728;2022-12-17T09:18:11;-5.00;99.90
23562;DHT22;11959;49.418;8.728;2022-12-17T09:20:55;-5.00;99.90
23562;DHT22;11959;49.418;8.728;2022-12-17T09:23:39;-5.00;99.90
23562;DHT22;11959;49.418;8.728;2022-12-17T09:26:24;-4.90;99.90
23562;DHT22;11959;49.418;8.728;2022-12-17T09:29:08;-4.80;99.90
23562;DHT22;11959;49.418;8.728;2022-12-17T09:31:52;-4.80;99.90
23562;DHT22;11959;49.418;8.728;2022-12-17T09:34:36;-4.80;99.90
23562;DHT22;11959;49.418;8.728;2022-12-17T09:37:22;-4.80;99.90
23562;DHT22;11959;49.418;8.728;2022-12-17T09:40:09;-4.70;99.90
23562;DHT22;11959;49.418;8.728;2022-12-17T09:43:07;-4.70;99.90
23562;DHT22;11959;49.418;8.728;2022-12-17T09:46:04;-4.60;99.90
23562;DHT22;11959;49.418;8.728;2022-12-17T09:48:59;-4.60;99.90
23562;DHT22;11959;49.418;8.728;2022-12-17T09:51:45;-4.50;99.90
23562;DHT22;11959;49.418;8.728;2022-12-17T09:54:56;-4.50;99.90
23562;DHT22;11959;49.418;8.728;2022-12-17T09:58:00;-4.50;99.90
23562;DHT22;11959;49.418;8.728;2022-12-17T10:00:44;-4.50;99.90
23562;DHT22;11959;49.418;8.728;2022-12-17T10:03:28;-4.40;99.90
23562;DHT22;11959;49.418;8.728;2022-12-17T10:06:18;-4.40;99.90
23562;DHT22;11959;49.418;8.728;2022-12-17T10:09:14;-4.40;99.90
23562;DHT22;11959;49.418;8.728;2022-12-17T10:12:17;-4.40;99.90
23562;DHT22;11959;49.418;8.728;2022-12-17T10:15:04;-4.40;99.90
23562;DHT22;11959;49.418;8.728;2022-12-17T10:17:49;-4.30;99.90
23562;DHT22;11959;49.418;8.728;2022-12-17T10:20:47;-4.30;99.90
23562;DHT22;11959;49.418;8.728;2022-12-17T10:23:33;-4.20;99.90
23562;DHT22;11959;49.418;8.728;2022-12-17T10:26:21;-4.20;99.90
23562;DHT22;11959;49.418;8.728;2022-12-17T10:29:10;-4.20;99.90
23562;DHT22;11959;49.418;8.728;2022-12-17T10:31:59;-4.20;99.90
23562;DHT22;11959;49.418;8.728;2022-12-17T10:34:51;-4.10;99.90
23562;DHT22;11959;49.418;8.728;2022-12-17T10:37:36;-4.10;99.90
23562;DHT22;11959;49.418;8.728;2022-12-17T10:40:28;-4.20;99.90
23562;DHT22;11959;49.418;8.728;2022-12-17T10:43:28;-4.10;99.90
23562;DHT22;11959;49.418;8.728;2022-12-17T10:46:30;-4.10;99.90
23562;DHT22;11959;49.418;8.728;2022-12-17T10:49:17;-4.10;99.90
23562;DHT22;11959;49.418;8.728;2022-12-17T10:52:26;-4.10;99.90
23562;DHT22;11959;49.418;8.728;2022-12-17T10:58:13;-4.10;99.90
23562;DHT22;11959;49.418;8.728;2022-12-17T11:00:59;-4.00;99.90
23562;DHT22;11959;49.418;8.728;2022-12-17T11:03:55;-4.00;99.90
23562;DHT22;11959;49.418;8.728;2022-12-17T11:06:45;-4.00;99.90
23562;DHT22;11959;49.418;8.728;2022-12-17T11:09:46;-4.00;99.90
23562;DHT22;11959;49.418;8.728;2022-12-17T11:15:43;-4.00;99.90
23562;DHT22;11959;49.418;8.728;2022-12-17T11:21:41;-4.00;99.90
23562;DHT22;11959;49.418;8.728;2022-12-17T11:24:59;-4.00;99.90
23562;DHT22;11959;49.418;8.728;2022-12-17T11:27:44;-4.00;99.90
23562;DHT22;11959;49.418;8.728;2022-12-17T11:30:33;-3.90;99.90
23562;DHT22;11959;49.418;8.728;2022-12-17T11:33:40;-4.00;99.90
23562;DHT22;11959;49.418;8.728;2022-12-17T11:36:41;-3.90;99.90
23562;DHT22;11959;49.418;8.728;2022-12-17T11:39:41;-3.90;99.90
23562;DHT22;11959;49.418;8.728;2022-12-17T11:42:54;-3.90;99.90
23562;DHT22;11959;49.418;8.728;2022-12-17T11:45:56;-3.90;99.90
23562;DHT22;11959;49.418;8.728;2022-12-17T11:51:59;-3.80;99.90
23562;DHT22;11959;49.418;8.728;2022-12-17T11:54:51;-3.80;99.90
23562;DHT22;11959;49.418;8.728;2022-12-17T11:58:00;-3.80;99.90
23562;DHT22;11959;49.418;8.728;2022-12-17T12:07:04;-3.80;99.90
23562;DHT22;11959;49.418;8.728;2022-12-17T12:09:59;-3.80;99.90
23562;DHT22;11959;49.418;8.728;2022-12-17T12:16:21;-3.80;99.90
23562;DHT22;11959;49.418;8.728;2022-12-17T12:19:44;-3.80;99.90
23562;DHT22;11959;49.418;8.728;2022-12-17T12:22:49;-3.80;99.90
23562;DHT22;11959;49.418;8.728;2022-12-17T12:25:46;-3.70;99.90
23562;DHT22;11959;49.418;8.728;2022-12-17T12:31:43;-3.60;99.90
23562;DHT22;11959;49.418;8.728;2022-12-17T12:34:31;-3.60;99.90
23562;DHT22;11959;49.418;8.728;2022-12-17T12:37:17;-3.60;99.90
23562;DHT22;11959;49.418;8.728;2022-12-17T12:43:19;-3.70;99.90
23562;DHT22;11959;49.418;8.728;2022-12-17T12:46:42;-3.80;99.90
23562;DHT22;11959;49.418;8.728;2022-12-17T12:49:37;-3.80;99.90
23562;DHT22;11959;49.418;8.728;2022-12-17T12:52:25;-3.80;99.90
23562;DHT22;11959;49.418;8.728;2022-12-17T12:55:10;-3.90;99.90
23562;DHT22;11959;49.418;8.728;2022-12-17T12:58:00;-3.90;99.90
23562;DHT22;11959;49.418;8.728;2022-12-17T13:03:39;-4.00;99.90
23562;DHT22;11959;49.418;8.728;2022-12-17T13:06:40;-4.00;99.90
23562;DHT22;11959;49.418;8.728;2022-12-17T13:12:13;-3.90;99.90
23562;DHT22;11959;49.418;8.728;2022-12-17T13:24:48;-4.00;99.90
23562;DHT22;11959;49.418;8.728;2022-12-17T13:35:47;-4.00;99.90
23562;DHT22;11959;49.418;8.728;2022-12-17T13:41:14;-4.00;99.90
23562;DHT22;11959;49.418;8.728;2022-12-17T13:43:51;-3.90;99.90
23562;DHT22;11959;49.418;8.728;2022-12-17T13:46:23;-3.90;99.90
23562;DHT22;11959;49.418;8.728;2022-12-17T13:49:00;-4.00;99.90
23562;DHT22;11959;49.418;8.728;2022-12-17T13:51:29;-4.00;99.90
23562;DHT22;11959;49.418;8.728;2022-12-17T13:54:04;-4.00;99.90
23562;DHT22;11959;49.418;8.728;2022-12-17T13:56:35;-4.10;99.90
23562;DHT22;11959;49.418;8.728;2022-12-17T13:59:03;-4.00;99.90
23562;DHT22;11959;49.418;8.728;2022-12-17T14:01:30;-4.00;99.90
23562;DHT22;11959;49.418;8.728;2022-12-17T14:04:00;-4.00;99.90
23562;DHT22;11959;49.418;8.728;2022-12-17T14:06:33;-4.00;99.90
23562;DHT22;11959;49.418;8.728;2022-12-17T14:08:59;-4.00;99.90
23562;DHT22;11959;49.418;8.728;2022-12-17T14:11:26;-4.00;99.90
23562;DHT22;11959;49.418;8.728;2022-12-17T14:16:46;-4.10;99.90
23562;DHT22;11959;49.418;8.728;2022-12-17T14:19:12;-4.10;99.90
23562;DHT22;11959;49.418;8.728;2022-12-17T14:21:38;-4.10;99.90
23562;DHT22;11959;49.418;8.728;2022-12-17T14:24:06;-4.20;99.90
23562;DHT22;11959;49.418;8.728;2022-12-17T14:26:31;-4.20;99.90
23562;DHT22;11959;49.418;8.728;2022-12-17T14:28:57;-4.20;99.90
23562;DHT22;11959;49.418;8.728;2022-12-17T14:31:27;-4.10;99.90
23562;DHT22;11959;49.418;8.728;2022-12-17T14:36:33;-4.10;99.90
23562;DHT22;11959;49.418;8.728;2022-12-17T14:39:05;-4.10;99.90
23562;DHT22;11959;49.418;8.728;2022-12-17T14:41:41;-4.20;99.90
23562;DHT22;11959;49.418;8.728;2022-12-17T14:44:27;-4.20;99.90
23562;DHT22;11959;49.418;8.728;2022-12-17T14:54:55;-4.20;99.90
23562;DHT22;11959;49.418;8.728;2022-12-17T14:57:21;-4.20;99.90
23562;DHT22;11959;49.418;8.728;2022-12-17T14:59:47;-4.10;99.90
23562;DHT22;11959;49.418;8.728;2022-12-17T15:02:23;-4.20;99.90
23562;DHT22;11959;49.418;8.728;2022-12-17T15:04:51;-4.10;99.90
23562;DHT22;11959;49.418;8.728;2022-12-17T15:07:22;-4.10;99.90
23562;DHT22;11959;49.418;8.728;2022-12-17T15:09:49;-4.10;99.90
23562;DHT22;11959;49.418;8.728;2022-12-17T15:12:17;-4.00;99.90
23562;DHT22;11959;49.418;8.728;2022-12-17T15:14:43;-4.10;99.90
23562;DHT22;11959;49.418;8.728;2022-12-17T15:17:08;-4.00;99.90
23562;DHT22;11959;49.418;8.728;2022-12-17T15:19:34;-4.00;99.90
23562;DHT22;11959;49.418;8.728;2022-12-17T15:22:00;-4.10;99.90
23562;DHT22;11959;49.418;8.728;2022-12-17T15:24:27;-4.10;99.90
23562;DHT22;11959;49.418;8.728;2022-12-17T15:26:52;-4.10;99.90
23562;DHT22;11959;49.418;8.728;2022-12-17T15:29:19;-4.10;99.90
23562;DHT22;11959;49.418;8.728;2022-12-17T15:31:44;-4.10;99.90
23562;DHT22;11959;49.418;8.728;2022-12-17T15:34:11;-4.10;99.90
23562;DHT22;11959;49.418;8.728;2022-12-17T15:36:36;-4.20;99.90
23562;DHT22;11959;49.418;8.728;2022-12-17T15:39:02;-4.20;99.90
23562;DHT22;11959;49.418;8.728;2022-12-17T15:41:30;-4.30;99.90
23562;DHT22;11959;49.418;8.728;2022-12-17T15:44:15;-4.30;99.90
23562;DHT22;11959;49.418;8.728;2022-12-17T15:46:40;-4.30;99.90
23562;DHT22;11959;49.418;8.728;2022-12-17T15:49:06;-4.40;99.90
23562;DHT22;11959;49.418;8.728;2022-12-17T15:51:32;-4.40;99.90
23562;DHT22;11959;49.418;8.728;2022-12-17T15:53:57;-4.30;99.90
23562;DHT22;11959;49.418;8.728;2022-12-17T15:56:27;-4.40;99.90
23562;DHT22;11959;49.418;8.728;2022-12-17T15:58:55;-4.40;99.90
23562;DHT22;11959;49.418;8.728;2022-12-17T16:01:22;-4.30;99.90
23562;DHT22;11959;49.418;8.728;2022-12-17T16:03:48;-4.30;99.90
23562;DHT22;11959;49.418;8.728;2022-12-17T16:06:14;-4.30;99.90
23562;DHT22;11959;49.418;8.728;2022-12-17T16:08:40;-4.30;99.90
23562;DHT22;11959;49.418;8.728;2022-12-17T16:11:10;-4.30;99.90
23562;DHT22;11959;49.418;8.728;2022-12-17T16:13:37;-4.30;99.90
23562;DHT22;11959;49.418;8.728;2022-12-17T16:16:03;-4.30;99.90
23562;DHT22;11959;49.418;8.728;2022-12-17T16:18:29;-4.30;99.90
23562;DHT22;11959;49.418;8.728;2022-12-17T16:21:00;-4.30;99.90
23562;DHT22;11959;49.418;8.728;2022-12-17T16:23:26;-4.40;99.90
23562;DHT22;11959;49.418;8.728;2022-12-17T16:25:56;-4.40;99.90
23562;DHT22;11959;49.418;8.728;2022-12-17T16:28:23;-4.40;99.90
23562;DHT22;11959;49.418;8.728;2022-12-17T16:31:04;-4.40;99.90
23562;DHT22;11959;49.418;8.728;2022-12-17T16:33:34;-4.40;99.90
23562;DHT22;11959;49.418;8.728;2022-12-17T16:36:01;-4.50;99.90
23562;DHT22;11959;49.418;8.728;2022-12-17T16:38:27;-4.50;99.90
23562;DHT22;11959;49.418;8.728;2022-12-17T16:40:57;-4.50;99.90
23562;DHT22;11959;49.418;8.728;2022-12-17T16:43:24;-4.60;99.90
23562;DHT22;11959;49.418;8.728;2022-12-17T16:45:52;-4.60;99.90
23562;DHT22;11959;49.418;8.728;2022-12-17T16:48:21;-4.60;99.90
23562;DHT22;11959;49.418;8.728;2022-12-17T16:50:47;-4.60;99.90
23562;DHT22;11959;49.418;8.728;2022-12-17T16:53:14;-4.60;99.90
23562;DHT22;11959;49.418;8.728;2022-12-17T16:55:45;-4.60;99.90
23562;DHT22;11959;49.418;8.728;2022-12-17T16:58:12;-4.50;99.90
23562;DHT22;11959;49.418;8.728;2022-12-17T17:00:38;-4.50;99.90
23562;DHT22;11959;49.418;8.728;2022-12-17T17:03:05;-4.50;99.90
23562;DHT22;11959;49.418;8.728;2022-12-17T17:05:35;-4.50;99.90
23562;DHT22;11959;49.418;8.728;2022-12-17T17:08:01;-4.50;99.90
23562;DHT22;11959;49.418;8.728;2022-12-17T17:10:28;-4.50;99.90
23562;DHT22;11959;49.418;8.728;2022-12-17T17:12:55;-4.50;99.90
23562;DHT22;11959;49.418;8.728;2022-12-17T17:15:21;-4.50;99.90
23562;DHT22;11959;49.418;8.728;2022-12-17T17:17:47;-4.50;99.90
23562;DHT22;11959;49.418;8.728;2022-12-17T17:20:13;-4.50;99.90
23562;DHT22;11959;49.418;8.728;2022-12-17T17:22:39;-4.60;99.90
23562;DHT22;11959;49.418;8.728;2022-12-17T17:25:05;-4.60;99.90
23562;DHT22;11959;49.418;8.728;2022-12-17T17:27:31;-4.60;99.90
23562;DHT22;11959;49.418;8.728;2022-12-17T17:29:57;-4.60;99.90
23562;DHT22;11959;49.418;8.728;2022-12-17T17:32:23;-4.60;99.90
23562;DHT22;11959;49.418;8.728;2022-12-17T17:34:49;-4.60;99.90
23562;DHT22;11959;49.418;8.728;2022-12-17T17:37:15;-4.60;99.90
23562;DHT22;11959;49.418;8.728;2022-12-17T17:39:41;-4.60;99.90
23562;DHT22;11959;49.418;8.728;2022-12-17T17:42:07;-4.60;99.90
23562;DHT22;11959;49.418;8.728;2022-12-17T17:44:33;-4.60;99.90
23562;DHT22;11959;49.418;8.728;2022-12-17T17:47:01;-4.50;99.90
23562;DHT22;11959;49.418;8.728;2022-12-17T17:49:27;-4.50;99.90
23562;DHT22;11959;49.418;8.728;2022-12-17T17:51:53;-4.50;99.90
23562;DHT22;11959;49.418;8.728;2022-12-17T17:54:19;-4.50;99.90
23562;DHT22;11959;49.418;8.728;2022-12-17T17:56:45;-4.60;99.90
23562;DHT22;11959;49.418;8.728;2022-12-17T17:59:15;-4.60;99.90
23562;DHT22;11959;49.418;8.728;2022-12-17T18:01:47;-4.70;99.90
23562;DHT22;11959;49.418;8.728;2022-12-17T18:04:18;-4.70;99.90
23562;DHT22;11959;49.418;8.728;2022-12-17T18:06:46;-4.80;99.90
23562;DHT22;11959;49.418;8.728;2022-12-17T18:09:12;-4.80;99.90
23562;DHT22;11959;49.418;8.728;2022-12-17T18:11:39;-4.90;99.90
23562;DHT22;11959;49.418;8.728;2022-12-17T18:14:07;-4.90;99.90
23562;DHT22;11959;49.418;8.728;2022-12-17T18:19:15;-5.00;99.90
23562;DHT22;11959;49.418;8.728;2022-12-17T18:21:41;-5.10;99.90
23562;DHT22;11959;49.418;8.728;2022-12-17T18:24:16;-5.10;99.90
23562;DHT22;11959;49.418;8.728;2022-12-17T18:26:43;-5.10;99.90